createdAt,value
2022-07-31T00:00:18.921Z,59.58
2022-07-31T00:01:19.093Z,60.08
2022-07-31T00:02:19.240Z,59.68
2022-07-31T00:03:19.530Z,60.18
2022-07-31T00:04:19.641Z,60.28
2022-07-31T00:05:19.800Z,60.28
2022-07-31T00:06:19.960Z,59.78
2022-07-31T00:07:20.130Z,59.18
2022-07-31T00:08:20.281Z,59.08
2022-07-31T00:09:53.991Z,59.48
2022-07-31T00:10:21.650Z,60.51
2022-07-31T00:11:20.831Z,59.70
2022-07-31T00:12:20.991Z,60.21
2022-07-31T00:13:56.687Z,60.21
2022-07-31T00:14:22.363Z,59.81
2022-07-31T00:15:21.512Z,59.61
2022-07-31T00:16:21.670Z,59.50
2022-07-31T00:17:21.862Z,59.70
2022-07-31T00:18:21.990Z,60.81
2022-07-31T00:19:22.201Z,59.50
2022-07-31T00:20:22.362Z,60.31
2022-07-31T00:21:22.520Z,59.41
2022-07-31T00:22:22.716Z,59.50
2022-07-31T00:23:22.871Z,59.91
2022-07-31T00:24:23.071Z,59.41
2022-07-31T00:25:23.191Z,59.91
2022-07-31T00:26:23.361Z,60.21
2022-07-31T00:27:23.522Z,60.71
2022-07-31T00:28:23.681Z,60.71
2022-07-31T00:29:23.873Z,61.31
2022-07-31T00:30:24.035Z,61.21
2022-07-31T00:31:24.193Z,61.11
2022-07-31T00:32:24.350Z,61.21
2022-07-31T00:33:24.515Z,61.11
2022-07-31T00:34:24.692Z,61.11
2022-07-31T00:35:24.864Z,61.11
2022-07-31T00:36:29.961Z,61.21
2022-07-31T00:37:26.212Z,61.64
2022-07-31T00:38:26.908Z,60.74
2022-07-31T00:39:25.580Z,60.53
2022-07-31T00:40:25.732Z,60.64
2022-07-31T00:41:25.931Z,60.24
2022-07-31T00:42:26.085Z,60.14
2022-07-31T00:43:27.585Z,60.94
2022-07-31T00:44:26.447Z,60.94
2022-07-31T00:45:29.284Z,61.14
2022-07-31T00:46:27.768Z,61.34
2022-07-31T00:47:26.980Z,60.33
2022-07-31T00:48:27.723Z,60.84
2022-07-31T00:49:27.410Z,60.44
2022-07-31T00:50:28.485Z,60.94
2022-07-31T00:51:27.680Z,60.64
2022-07-31T00:52:27.853Z,60.03
2022-07-31T00:53:28.021Z,59.83
2022-07-31T00:54:28.193Z,60.94
2022-07-31T00:55:28.375Z,60.33
2022-07-31T00:56:28.513Z,60.64
2022-07-31T00:57:28.683Z,61.14
2022-07-31T00:58:28.843Z,60.64
2022-07-31T00:59:29.032Z,61.44
2022-07-31T01:00:29.206Z,61.14
2022-07-31T01:01:29.488Z,60.33
2022-07-31T01:02:29.553Z,60.33
2022-07-31T01:03:29.716Z,60.64
2022-07-31T01:04:31.291Z,61.04
2022-07-31T01:05:30.060Z,60.74
2022-07-31T01:06:30.219Z,61.17
2022-07-31T01:07:30.377Z,60.94
2022-07-31T01:08:30.543Z,60.77
2022-07-31T01:09:30.724Z,60.66
2022-07-31T01:10:30.884Z,60.86
2022-07-31T01:11:31.065Z,60.77
2022-07-31T01:12:31.225Z,61.07
2022-07-31T01:13:31.386Z,61.17
2022-07-31T01:14:31.585Z,61.27
2022-07-31T01:15:31.756Z,61.67
2022-07-31T01:16:31.918Z,61.17
2022-07-31T01:17:32.099Z,62.37
2022-07-31T01:18:32.235Z,62.77
2022-07-31T01:19:37.983Z,62.17
2022-07-31T01:20:33.565Z,62.17
2022-07-31T01:21:32.757Z,61.87
2022-07-31T01:22:35.083Z,62.37
2022-07-31T01:23:33.104Z,62.67
2022-07-31T01:24:33.304Z,62.57
2022-07-31T01:25:33.441Z,62.57
2022-07-31T01:26:33.601Z,62.57
2022-07-31T01:27:49.662Z,61.87
2022-07-31T01:28:34.952Z,61.97
2022-07-31T01:29:34.114Z,61.57
2022-07-31T01:30:34.266Z,62.17
2022-07-31T01:31:34.437Z,61.27
2022-07-31T01:32:34.596Z,61.97
2022-07-31T01:33:34.770Z,61.97
2022-07-31T01:34:34.955Z,61.36
2022-07-31T01:35:35.122Z,61.36
2022-07-31T01:36:35.474Z,62.17
2022-07-31T01:37:35.446Z,62.67
2022-07-31T01:38:35.627Z,61.97
2022-07-31T01:39:35.797Z,62.77
2022-07-31T01:40:35.958Z,62.77
2022-07-31T01:41:36.122Z,62.97
2022-07-31T01:42:36.277Z,62.97
2022-07-31T01:43:36.438Z,63.28
2022-07-31T01:44:36.617Z,62.40
2022-07-31T01:45:36.788Z,62.27
2022-07-31T01:46:39.016Z,62.07
2022-07-31T01:47:37.146Z,61.70
2022-07-31T01:48:37.310Z,62.10
2022-07-31T01:49:37.487Z,62.60
2022-07-31T01:50:43.963Z,61.90
2022-07-31T01:51:38.848Z,62.70
2022-07-31T01:52:38.026Z,62.00
2022-07-31T01:53:38.188Z,62.20
2022-07-31T01:54:38.368Z,61.60
2022-07-31T01:56:00.916Z,62.60
2022-07-31T01:56:39.720Z,62.10
2022-07-31T01:57:38.915Z,62.30
2022-07-31T01:58:39.077Z,61.70
2022-07-31T01:59:39.251Z,61.80
2022-07-31T02:00:40.464Z,62.50
2022-07-31T02:01:39.615Z,62.10
2022-07-31T02:02:40.371Z,61.60
2022-07-31T02:03:44.067Z,63.00
2022-07-31T02:04:41.589Z,62.30
2022-07-31T02:05:40.264Z,62.40
2022-07-31T02:06:40.426Z,63.20
2022-07-31T02:07:40.618Z,62.80
2022-07-31T02:08:40.786Z,62.60
2022-07-31T02:09:53.685Z,63.60
2022-07-31T02:10:42.118Z,63.31
2022-07-31T02:11:53.582Z,63.10
2022-07-31T02:12:42.490Z,62.90
2022-07-31T02:13:41.681Z,63.31
2022-07-31T02:14:41.859Z,63.40
2022-07-31T02:15:42.020Z,63.50
2022-07-31T02:16:42.186Z,63.10
2022-07-31T02:17:42.349Z,63.70
2022-07-31T02:18:42.520Z,62.90
2022-07-31T02:19:55.406Z,64.11
2022-07-31T02:20:43.879Z,64.61
2022-07-31T02:21:43.070Z,64.84
2022-07-31T02:22:43.229Z,64.74
2022-07-31T02:23:43.391Z,65.04
2022-07-31T02:24:43.570Z,64.84
2022-07-31T02:25:43.733Z,64.34
2022-07-31T02:26:43.899Z,64.43
2022-07-31T02:27:53.627Z,64.94
2022-07-31T02:28:45.260Z,63.84
2022-07-31T02:29:44.451Z,64.64
2022-07-31T02:30:44.611Z,64.43
2022-07-31T02:31:44.771Z,63.84
2022-07-31T02:32:44.933Z,63.43
2022-07-31T02:33:45.091Z,63.84
2022-07-31T02:34:45.274Z,64.54
2022-07-31T02:35:45.793Z,64.64
2022-07-31T02:36:45.619Z,64.43
2022-07-31T02:37:45.770Z,65.14
2022-07-31T02:38:45.970Z,65.54
2022-07-31T02:39:46.152Z,65.14
2022-07-31T02:40:46.312Z,63.93
2022-07-31T02:41:46.499Z,64.94
2022-07-31T02:42:46.640Z,65.54
2022-07-31T02:43:46.807Z,65.17
2022-07-31T02:44:46.981Z,64.47
2022-07-31T02:45:47.149Z,64.57
2022-07-31T02:46:47.311Z,64.67
2022-07-31T02:47:47.472Z,65.37
2022-07-31T02:48:47.756Z,65.47
2022-07-31T02:49:47.871Z,65.67
2022-07-31T02:50:48.021Z,65.17
2022-07-31T02:51:48.181Z,64.27
2022-07-31T02:52:48.353Z,64.67
2022-07-31T02:53:48.513Z,64.57
2022-07-31T02:54:48.682Z,64.57
2022-07-31T02:55:48.854Z,64.27
2022-07-31T02:56:49.011Z,65.77
2022-07-31T02:57:49.172Z,65.37
2022-07-31T02:58:49.353Z,65.47
2022-07-31T02:59:49.543Z,64.97
2022-07-31T03:00:49.738Z,64.47
2022-07-31T03:01:49.922Z,64.27
2022-07-31T03:02:50.052Z,64.17
2022-07-31T03:03:50.235Z,65.07
2022-07-31T03:04:50.432Z,65.37
2022-07-31T03:05:50.602Z,66.17
2022-07-31T03:06:50.782Z,65.88
2022-07-31T03:07:50.962Z,65.97
2022-07-31T03:08:51.144Z,66.28
2022-07-31T03:09:51.332Z,65.17
2022-07-31T03:10:51.534Z,65.17
2022-07-31T03:11:51.674Z,65.20
2022-07-31T03:12:51.843Z,65.00
2022-07-31T03:13:52.024Z,65.41
2022-07-31T03:14:52.233Z,65.20
2022-07-31T03:15:52.385Z,65.70
2022-07-31T03:16:52.563Z,66.31
2022-07-31T03:17:52.760Z,65.30
2022-07-31T03:18:52.913Z,66.20
2022-07-31T03:19:53.091Z,66.11
2022-07-31T03:20:53.255Z,65.70
2022-07-31T03:21:53.413Z,66.31
2022-07-31T03:22:53.613Z,66.41
2022-07-31T03:23:53.808Z,66.51
2022-07-31T03:24:54.077Z,66.51
2022-07-31T03:25:54.145Z,66.31
2022-07-31T03:26:54.303Z,66.00
2022-07-31T03:27:56.772Z,66.61
2022-07-31T03:28:54.622Z,67.11
2022-07-31T03:29:54.794Z,67.21
2022-07-31T03:30:56.248Z,67.01
2022-07-31T03:31:55.095Z,66.94
2022-07-31T03:32:55.275Z,66.74
2022-07-31T03:33:55.465Z,66.74
2022-07-31T03:34:55.674Z,66.64
2022-07-31T03:35:55.811Z,66.14
2022-07-31T03:36:56.007Z,65.73
2022-07-31T03:37:56.187Z,66.03
2022-07-31T03:38:56.375Z,65.73
2022-07-31T03:39:56.554Z,65.94
2022-07-31T03:40:56.708Z,66.84
2022-07-31T03:41:56.886Z,66.64
2022-07-31T03:42:57.058Z,67.14
2022-07-31T03:43:57.214Z,67.44
2022-07-31T03:44:57.424Z,67.35
2022-07-31T03:45:57.564Z,66.64
2022-07-31T03:46:57.755Z,66.34
2022-07-31T03:47:57.925Z,66.51
2022-07-31T03:48:58.123Z,67.21
2022-07-31T03:49:58.305Z,66.11
2022-07-31T03:50:58.458Z,66.71
2022-07-31T03:51:58.619Z,66.41
2022-07-31T03:52:58.775Z,65.91
2022-07-31T03:53:58.938Z,66.31
2022-07-31T03:54:59.114Z,67.01
2022-07-31T03:55:59.269Z,66.91
2022-07-31T03:56:59.455Z,66.81
2022-07-31T03:57:59.626Z,66.17
2022-07-31T03:58:59.806Z,66.58
2022-07-31T04:00:00.076Z,66.58
2022-07-31T04:01:00.168Z,66.47
2022-07-31T04:02:00.346Z,66.08
2022-07-31T04:03:00.565Z,65.97
2022-07-31T04:04:00.738Z,65.37
2022-07-31T04:05:00.925Z,65.94
2022-07-31T04:06:01.091Z,65.84
2022-07-31T04:07:01.269Z,65.44
2022-07-31T04:08:01.447Z,65.44
2022-07-31T04:09:01.637Z,65.94
2022-07-31T04:10:02.827Z,65.74
2022-07-31T04:11:01.987Z,65.71
2022-07-31T04:12:02.471Z,65.41
2022-07-31T04:13:02.366Z,65.41
2022-07-31T04:14:02.526Z,65.41
2022-07-31T04:15:02.725Z,65.61
2022-07-31T04:16:02.897Z,65.51
2022-07-31T04:17:03.077Z,65.11
2022-07-31T04:18:03.256Z,65.31
2022-07-31T04:19:03.446Z,65.61
2022-07-31T04:20:03.683Z,65.11
2022-07-31T04:21:03.807Z,64.88
2022-07-31T04:22:04.316Z,64.78
2022-07-31T04:23:04.186Z,64.88
2022-07-31T04:24:04.365Z,64.78
2022-07-31T04:25:04.636Z,64.68
2022-07-31T04:26:04.706Z,64.58
2022-07-31T04:27:08.186Z,64.58
2022-07-31T04:28:06.077Z,64.75
2022-07-31T04:29:05.269Z,64.65
2022-07-31T04:30:05.468Z,64.25
2022-07-31T04:31:05.627Z,63.95
2022-07-31T04:32:06.114Z,64.15
2022-07-31T04:33:05.956Z,63.95
2022-07-31T04:34:06.127Z,64.25
2022-07-31T04:35:06.327Z,64.15
2022-07-31T04:36:06.477Z,64.22
2022-07-31T04:37:07.679Z,64.22
2022-07-31T04:38:06.827Z,64.22
2022-07-31T04:39:07.019Z,64.01
2022-07-31T04:40:07.210Z,64.22
2022-07-31T04:41:07.368Z,63.92
2022-07-31T04:42:11.259Z,63.89
2022-07-31T04:43:07.718Z,64.18
2022-07-31T04:44:07.898Z,63.78
2022-07-31T04:45:08.099Z,63.78
2022-07-31T04:46:17.059Z,63.89
2022-07-31T04:47:09.460Z,63.98
2022-07-31T04:48:08.648Z,63.78
2022-07-31T04:49:08.884Z,63.78
2022-07-31T04:50:09.009Z,63.56
2022-07-31T04:51:09.148Z,63.95
2022-07-31T04:52:09.330Z,63.75
2022-07-31T04:53:09.512Z,63.35
2022-07-31T04:54:09.688Z,63.35
2022-07-31T04:55:09.889Z,63.65
2022-07-31T04:56:10.051Z,63.25
2022-07-31T04:57:10.238Z,63.15
2022-07-31T04:58:10.420Z,63.02
2022-07-31T04:59:10.599Z,63.02
2022-07-31T05:00:10.799Z,63.12
2022-07-31T05:01:11.036Z,63.02
2022-07-31T05:02:11.171Z,63.22
2022-07-31T05:03:11.282Z,62.62
2022-07-31T05:04:11.459Z,62.42
2022-07-31T05:05:11.670Z,62.42
2022-07-31T05:06:11.981Z,62.29
2022-07-31T05:07:11.980Z,62.19
2022-07-31T05:08:12.160Z,62.39
2022-07-31T05:09:17.955Z,62.79
2022-07-31T05:10:13.531Z,62.59
2022-07-31T05:11:12.690Z,62.39
2022-07-31T05:12:12.870Z,62.49
2022-07-31T05:13:13.051Z,62.37
2022-07-31T05:14:13.220Z,62.37
2022-07-31T05:15:13.430Z,61.76
2022-07-31T05:16:13.578Z,61.87
2022-07-31T05:17:13.758Z,61.87
2022-07-31T05:18:13.931Z,61.33
2022-07-31T05:19:15.001Z,61.43
2022-07-31T05:20:14.320Z,61.33
2022-07-31T05:21:14.480Z,61.04
2022-07-31T05:22:14.700Z,60.83
2022-07-31T05:23:14.851Z,60.63
2022-07-31T05:24:15.001Z,60.63
2022-07-31T05:25:15.212Z,60.63
2022-07-31T05:26:15.351Z,60.50
2022-07-31T05:27:15.531Z,60.31
2022-07-31T05:28:15.712Z,59.98
2022-07-31T05:29:15.892Z,59.55
2022-07-31T05:30:16.052Z,58.72
2022-07-31T05:31:16.225Z,58.17
2022-07-31T05:32:16.678Z,56.55
2022-07-31T05:33:16.550Z,55.70
2022-07-31T05:34:16.714Z,55.15
2022-07-31T05:35:16.993Z,54.10
2022-07-31T05:36:17.083Z,52.49
2022-07-31T05:37:17.262Z,51.35
2022-07-31T05:38:17.443Z,50.93
2022-07-31T05:39:17.618Z,50.41
2022-07-31T05:40:17.830Z,50.36
2022-07-31T05:41:17.954Z,49.15
2022-07-31T05:42:18.140Z,48.33
2022-07-31T05:43:18.311Z,47.52
2022-07-31T05:44:18.496Z,46.70
2022-07-31T05:45:18.674Z,46.19
2022-07-31T05:46:18.861Z,45.38
2022-07-31T05:47:19.035Z,44.96
2022-07-31T05:48:19.231Z,45.04
2022-07-31T05:49:19.468Z,44.43
2022-07-31T05:50:19.614Z,44.70
2022-07-31T05:51:19.951Z,43.60
2022-07-31T05:52:19.952Z,43.30
2022-07-31T05:53:21.114Z,42.69
2022-07-31T05:54:20.342Z,42.40
2022-07-31T05:55:20.485Z,41.98
2022-07-31T05:56:20.667Z,42.35
2022-07-31T05:57:33.723Z,41.35
2022-07-31T05:58:21.999Z,41.16
2022-07-31T05:59:21.190Z,41.16
2022-07-31T06:00:21.386Z,40.84
2022-07-31T06:01:21.601Z,40.94
2022-07-31T06:02:21.708Z,40.03
2022-07-31T06:03:21.897Z,40.13
2022-07-31T06:04:22.075Z,40.01
2022-07-31T06:05:22.267Z,39.53
2022-07-31T06:06:22.437Z,39.22
2022-07-31T06:07:22.618Z,38.72
2022-07-31T06:08:22.789Z,38.92
2022-07-31T06:09:22.980Z,39.00
2022-07-31T06:10:23.167Z,38.80
2022-07-31T06:11:23.338Z,38.39
2022-07-31T06:12:23.509Z,37.98
2022-07-31T06:13:23.699Z,38.47
2022-07-31T06:14:23.870Z,37.96
2022-07-31T06:15:24.069Z,37.26
2022-07-31T06:16:24.247Z,36.67
2022-07-31T06:17:24.425Z,36.46
2022-07-31T06:18:25.600Z,36.93
2022-07-31T06:19:24.937Z,36.15
2022-07-31T06:20:24.996Z,35.84
2022-07-31T06:21:30.371Z,35.64
2022-07-31T06:22:25.355Z,36.23
2022-07-31T06:23:29.633Z,35.35
2022-07-31T06:24:26.711Z,35.53
2022-07-31T06:25:30.182Z,34.92
2022-07-31T06:26:27.689Z,34.73
2022-07-31T06:27:33.242Z,34.91
2022-07-31T06:28:38.853Z,33.93
2022-07-31T06:29:42.255Z,34.03
2022-07-31T06:30:27.822Z,34.01
2022-07-31T06:31:26.944Z,33.62
2022-07-31T06:32:27.123Z,33.23
2022-07-31T06:33:37.591Z,33.43
2022-07-31T06:34:28.478Z,33.51
2022-07-31T06:35:27.666Z,33.02
2022-07-31T06:36:27.854Z,33.12
2022-07-31T06:37:28.034Z,33.59
2022-07-31T06:38:28.204Z,32.79
2022-07-31T06:39:55.124Z,32.40
2022-07-31T06:40:29.576Z,32.59
2022-07-31T06:41:28.735Z,32.29
2022-07-31T06:42:28.905Z,32.10
2022-07-31T06:43:29.096Z,32.29
2022-07-31T06:44:29.266Z,32.10
2022-07-31T06:45:50.679Z,32.29
2022-07-31T06:46:30.609Z,31.98
2022-07-31T06:47:29.797Z,31.79
2022-07-31T06:48:29.972Z,32.18
2022-07-31T06:49:30.353Z,31.29
2022-07-31T06:50:30.357Z,31.37
2022-07-31T06:51:31.970Z,31.18
2022-07-31T06:52:30.688Z,31.85
2022-07-31T06:53:30.868Z,30.97
2022-07-31T06:54:31.050Z,31.16
2022-07-31T06:55:31.254Z,30.68
2022-07-31T06:56:31.394Z,31.15
2022-07-31T06:57:31.579Z,30.37
2022-07-31T06:58:31.769Z,29.87
2022-07-31T06:59:39.640Z,30.18
2022-07-31T07:00:33.140Z,30.37
2022-07-31T07:01:32.377Z,30.57
2022-07-31T07:02:32.477Z,30.45
2022-07-31T07:03:32.642Z,30.26
2022-07-31T07:05:04.527Z,30.54
2022-07-31T07:05:34.020Z,29.76
2022-07-31T07:06:33.161Z,30.07
2022-07-31T07:07:33.352Z,30.74
2022-07-31T07:08:33.523Z,29.87
2022-07-31T07:09:33.720Z,30.82
2022-07-31T07:10:33.894Z,30.15
2022-07-31T07:11:34.115Z,30.44
2022-07-31T07:12:34.241Z,30.32
2022-07-31T07:13:45.347Z,29.47
2022-07-31T07:14:35.595Z,29.47
2022-07-31T07:15:34.784Z,29.94
2022-07-31T07:16:34.975Z,29.46
2022-07-31T07:17:35.124Z,28.97
2022-07-31T07:18:35.298Z,29.15
2022-07-31T07:19:35.485Z,28.96
2022-07-31T07:20:35.655Z,29.24
2022-07-31T07:21:35.865Z,28.96
2022-07-31T07:22:36.007Z,28.85
2022-07-31T07:23:36.197Z,28.55
2022-07-31T07:24:36.385Z,28.45
2022-07-31T07:25:36.567Z,28.25
2022-07-31T07:26:36.754Z,28.25
2022-07-31T07:27:36.934Z,28.64
2022-07-31T07:28:37.106Z,28.52
2022-07-31T07:29:37.311Z,28.52
2022-07-31T07:30:37.458Z,27.85
2022-07-31T07:31:37.638Z,28.12
2022-07-31T07:32:37.818Z,27.64
2022-07-31T07:33:39.591Z,27.83
2022-07-31T07:34:38.170Z,27.62
2022-07-31T07:35:38.368Z,27.33
2022-07-31T07:36:38.511Z,27.71
2022-07-31T07:37:39.195Z,27.13
2022-07-31T07:38:38.901Z,27.03
2022-07-31T07:39:39.062Z,27.13
2022-07-31T07:40:39.251Z,26.93
2022-07-31T07:41:39.443Z,27.33
2022-07-31T07:42:39.591Z,27.51
2022-07-31T07:43:39.771Z,27.13
2022-07-31T07:44:39.941Z,27.23
2022-07-31T07:45:40.130Z,27.23
2022-07-31T07:46:40.309Z,27.50
2022-07-31T07:47:53.885Z,27.13
2022-07-31T07:48:41.673Z,27.12
2022-07-31T07:49:40.863Z,27.31
2022-07-31T07:50:41.073Z,26.72
2022-07-31T07:52:00.085Z,26.62
2022-07-31T07:52:44.038Z,26.42
2022-07-31T07:53:41.574Z,26.22
2022-07-31T07:54:41.763Z,26.02
2022-07-31T07:55:41.955Z,26.10
2022-07-31T07:56:42.124Z,25.71
2022-07-31T07:57:42.316Z,25.32
2022-07-31T07:58:42.494Z,25.42
2022-07-31T07:59:42.685Z,25.79
2022-07-31T08:00:42.922Z,25.20
2022-07-31T08:01:43.096Z,24.90
2022-07-31T08:02:43.195Z,25.28
2022-07-31T08:03:48.816Z,24.69
2022-07-31T08:04:47.501Z,24.99
2022-07-31T08:05:43.757Z,24.69
2022-07-31T08:06:43.935Z,25.07
2022-07-31T08:07:44.125Z,24.21
2022-07-31T08:08:44.308Z,24.11
2022-07-31T08:09:44.479Z,24.71
2022-07-31T08:10:44.667Z,25.32
2022-07-31T08:11:44.848Z,26.02
2022-07-31T08:12:45.028Z,26.33
2022-07-31T08:13:49.707Z,26.73
2022-07-31T08:14:46.380Z,26.53
2022-07-31T08:15:45.588Z,26.61
2022-07-31T08:16:45.806Z,26.10
2022-07-31T08:17:45.910Z,25.69
2022-07-31T08:18:46.076Z,25.01
2022-07-31T08:19:51.070Z,25.18
2022-07-31T08:20:47.450Z,24.79
2022-07-31T08:21:46.640Z,24.70
2022-07-31T08:22:46.839Z,24.40
2022-07-31T08:23:46.961Z,24.02
2022-07-31T08:24:47.132Z,24.11
2022-07-31T08:25:47.348Z,24.32
2022-07-31T08:26:47.511Z,25.18
2022-07-31T08:27:47.930Z,24.30
2022-07-31T08:28:50.539Z,24.79
2022-07-31T08:29:48.032Z,24.10
2022-07-31T08:30:48.213Z,24.76
2022-07-31T08:31:49.365Z,25.13
2022-07-31T08:32:48.524Z,23.58
2022-07-31T08:33:48.713Z,23.49
2022-07-31T08:34:48.895Z,23.96
2022-07-31T08:35:50.164Z,23.37
2022-07-31T08:36:49.235Z,23.39
2022-07-31T08:37:54.353Z,23.88
2022-07-31T08:38:50.607Z,23.90
2022-07-31T08:39:49.794Z,24.21
2022-07-31T08:40:49.993Z,24.70
2022-07-31T08:41:50.136Z,25.09
2022-07-31T08:42:50.312Z,24.91
2022-07-31T08:44:02.772Z,25.22
2022-07-31T08:44:51.674Z,25.51
2022-07-31T08:45:50.878Z,25.62
2022-07-31T08:46:51.018Z,25.91
2022-07-31T08:47:51.197Z,25.60
2022-07-31T08:48:51.436Z,25.51
2022-07-31T08:49:51.559Z,25.43
2022-07-31T08:50:53.900Z,25.73
2022-07-31T08:51:52.733Z,25.92
2022-07-31T08:52:52.080Z,25.84
2022-07-31T08:53:52.261Z,26.04
2022-07-31T08:54:52.442Z,26.44
2022-07-31T08:55:56.153Z,26.75
2022-07-31T08:56:53.790Z,26.75
2022-07-31T08:57:52.959Z,26.95
2022-07-31T08:58:53.121Z,27.04
2022-07-31T08:59:53.320Z,27.04
2022-07-31T09:00:53.540Z,26.75
2022-07-31T09:01:53.641Z,26.73
2022-07-31T09:02:53.809Z,26.33
2022-07-31T09:03:53.993Z,25.93
2022-07-31T09:04:54.183Z,25.43
2022-07-31T09:05:54.384Z,24.92
2022-07-31T09:06:54.563Z,25.38
2022-07-31T09:07:54.720Z,25.07
2022-07-31T09:08:54.893Z,24.39
2022-07-31T09:09:55.092Z,23.90
2022-07-31T09:10:55.285Z,23.88
2022-07-31T09:11:55.424Z,23.67
2022-07-31T09:12:55.604Z,22.99
2022-07-31T09:14:01.524Z,22.78
2022-07-31T09:14:56.965Z,22.21
2022-07-31T09:15:56.136Z,22.30
2022-07-31T09:16:56.315Z,22.01
2022-07-31T09:17:56.496Z,22.30
2022-07-31T09:18:56.675Z,22.30
2022-07-31T09:19:56.846Z,22.39
2022-07-31T09:20:57.040Z,22.00
2022-07-31T09:21:57.253Z,22.00
2022-07-31T09:22:57.405Z,22.27
2022-07-31T09:23:57.587Z,21.41
2022-07-31T09:24:57.769Z,21.61
2022-07-31T09:25:57.969Z,21.88
2022-07-31T09:26:58.128Z,21.41
2022-07-31T09:27:58.282Z,21.39
2022-07-31T09:28:58.462Z,21.20
2022-07-31T09:29:58.629Z,21.31
2022-07-31T09:30:58.827Z,21.77
2022-07-31T09:31:58.978Z,21.09
2022-07-31T09:32:59.150Z,21.19
2022-07-31T09:33:59.351Z,21.67
2022-07-31T09:34:59.530Z,21.38
2022-07-31T09:35:59.730Z,20.79
2022-07-31T09:36:59.868Z,21.66
2022-07-31T09:38:00.050Z,20.88
2022-07-31T09:39:05.266Z,20.98
2022-07-31T09:40:01.857Z,20.40
2022-07-31T09:41:00.581Z,20.03
2022-07-31T09:42:17.011Z,19.73
2022-07-31T09:43:03.023Z,20.03
2022-07-31T09:44:01.138Z,20.11
2022-07-31T09:45:01.328Z,20.12
2022-07-31T09:46:01.523Z,19.64
2022-07-31T09:47:02.037Z,19.44
2022-07-31T09:48:01.833Z,19.54
2022-07-31T09:49:02.064Z,19.72
2022-07-31T09:50:02.226Z,19.72
2022-07-31T09:51:02.364Z,19.91
2022-07-31T09:52:02.555Z,20.18
2022-07-31T09:53:02.725Z,19.70
2022-07-31T09:54:02.915Z,19.22
2022-07-31T09:55:03.096Z,19.43
2022-07-31T09:56:04.345Z,19.53
2022-07-31T09:57:03.750Z,19.42
2022-07-31T09:58:03.645Z,19.53
2022-07-31T09:59:03.846Z,19.72
2022-07-31T10:00:04.018Z,19.34
2022-07-31T10:01:04.246Z,19.34
2022-07-31T10:02:04.376Z,19.91
2022-07-31T10:03:04.566Z,19.61
2022-07-31T10:04:04.758Z,19.13
2022-07-31T10:05:04.905Z,19.22
2022-07-31T10:06:05.126Z,19.59
2022-07-31T10:07:05.606Z,19.31
2022-07-31T10:08:05.472Z,18.64
2022-07-31T10:09:05.648Z,18.65
2022-07-31T10:10:05.830Z,18.85
2022-07-31T10:11:06.008Z,19.52
2022-07-31T10:12:06.188Z,19.33
2022-07-31T10:13:06.388Z,19.24
2022-07-31T10:14:06.537Z,19.62
2022-07-31T10:15:06.708Z,19.92
2022-07-31T10:16:06.921Z,19.64
2022-07-31T10:17:07.321Z,20.03
2022-07-31T10:18:07.247Z,20.43
2022-07-31T10:19:07.420Z,21.14
2022-07-31T10:20:07.600Z,21.25
2022-07-31T10:21:07.790Z,22.42
2022-07-31T10:22:07.976Z,22.27
2022-07-31T10:23:08.158Z,22.47
2022-07-31T10:24:08.373Z,23.36
2022-07-31T10:25:08.490Z,23.08
2022-07-31T10:26:08.682Z,23.20
2022-07-31T10:27:09.513Z,24.86
2022-07-31T10:28:09.023Z,24.79
2022-07-31T10:29:09.183Z,25.09
2022-07-31T10:30:09.364Z,26.18
2022-07-31T10:31:09.533Z,25.82
2022-07-31T10:32:09.693Z,26.21
2022-07-31T10:33:40.817Z,27.21
2022-07-31T10:34:11.036Z,26.64
2022-07-31T10:35:10.214Z,27.25
2022-07-31T10:36:10.398Z,27.35
2022-07-31T10:37:11.417Z,27.96
2022-07-31T10:38:10.695Z,28.45
2022-07-31T10:39:10.876Z,29.15
2022-07-31T10:40:11.063Z,29.36
2022-07-31T10:41:11.260Z,29.47
2022-07-31T10:42:11.425Z,29.47
2022-07-31T10:43:11.616Z,30.47
2022-07-31T10:44:11.809Z,30.68
2022-07-31T10:45:11.968Z,30.78
2022-07-31T10:46:12.166Z,31.28
2022-07-31T10:47:12.318Z,31.59
2022-07-31T10:48:12.468Z,32.09
2022-07-31T10:49:12.726Z,32.09
2022-07-31T10:50:12.850Z,32.21
2022-07-31T10:51:13.048Z,32.40
2022-07-31T10:52:13.196Z,33.56
2022-07-31T10:53:13.390Z,32.39
2022-07-31T10:54:13.538Z,31.90
2022-07-31T10:55:13.728Z,32.19
2022-07-31T10:56:13.904Z,31.99
2022-07-31T10:57:14.059Z,32.09
2022-07-31T10:58:14.249Z,32.78
2022-07-31T10:59:14.420Z,32.09
2022-07-31T11:00:14.601Z,32.21
2022-07-31T11:01:17.628Z,32.50
2022-07-31T11:02:14.971Z,33.20
2022-07-31T11:03:15.128Z,33.31
2022-07-31T11:04:15.309Z,33.33
2022-07-31T11:05:15.490Z,33.53
2022-07-31T11:06:15.701Z,33.84
2022-07-31T11:07:15.839Z,34.03
2022-07-31T11:08:16.021Z,34.44
2022-07-31T11:09:16.211Z,34.54
2022-07-31T11:10:16.401Z,33.85
2022-07-31T11:11:16.584Z,33.75
2022-07-31T11:12:16.762Z,33.75
2022-07-31T11:13:16.953Z,33.85
2022-07-31T11:14:17.139Z,34.34
2022-07-31T11:15:17.323Z,34.24
2022-07-31T11:16:17.486Z,34.14
2022-07-31T11:17:17.673Z,34.23
2022-07-31T11:18:25.267Z,34.13
2022-07-31T11:19:19.036Z,34.33
2022-07-31T11:20:18.173Z,34.01
2022-07-31T11:21:37.621Z,33.33
2022-07-31T11:22:32.280Z,33.14
2022-07-31T11:23:19.715Z,33.14
2022-07-31T11:24:18.868Z,32.75
2022-07-31T11:25:19.054Z,32.45
2022-07-31T11:26:19.244Z,32.66
2022-07-31T11:27:20.414Z,33.54
2022-07-31T11:28:19.587Z,33.05
2022-07-31T11:29:59.964Z,33.34
2022-07-31T11:30:20.905Z,33.54
2022-07-31T11:31:20.099Z,34.33
2022-07-31T11:32:25.078Z,33.94
2022-07-31T11:33:21.454Z,34.42
2022-07-31T11:34:20.605Z,34.62
2022-07-31T11:35:20.786Z,34.13
2022-07-31T11:36:20.983Z,34.33
2022-07-31T11:37:21.137Z,34.74
2022-07-31T11:38:21.316Z,34.64
2022-07-31T11:39:26.605Z,34.14
2022-07-31T11:40:27.300Z,34.44
2022-07-31T11:41:23.123Z,34.05
2022-07-31T11:42:26.437Z,34.14
2022-07-31T11:43:25.947Z,33.67
2022-07-31T11:44:22.390Z,33.97
2022-07-31T11:45:22.569Z,34.26
2022-07-31T11:46:22.769Z,33.89
2022-07-31T11:48:10.294Z,33.98
2022-07-31T11:48:27.328Z,34.47
2022-07-31T11:49:39.206Z,34.57
2022-07-31T11:50:24.472Z,34.84
2022-07-31T11:51:23.659Z,34.16
2022-07-31T11:52:30.768Z,34.54
2022-07-31T11:53:24.982Z,33.94
2022-07-31T11:54:24.151Z,34.13
2022-07-31T11:55:24.322Z,33.54
2022-07-31T11:56:24.500Z,32.76
2022-07-31T11:57:24.660Z,32.95
2022-07-31T11:58:25.820Z,32.95
2022-07-31T11:59:45.514Z,33.45
2022-07-31T12:00:29.692Z,33.74
2022-07-31T12:01:25.412Z,33.25
2022-07-31T12:02:25.648Z,32.95
2022-07-31T12:03:25.742Z,32.86
2022-07-31T12:04:25.922Z,32.97
2022-07-31T12:05:37.935Z,33.65
2022-07-31T12:06:27.282Z,33.46
2022-07-31T12:07:26.432Z,32.97
2022-07-31T12:08:26.621Z,33.26
2022-07-31T12:10:00.805Z,32.97
2022-07-31T12:10:27.973Z,33.09
2022-07-31T12:11:27.153Z,33.18
2022-07-31T12:12:27.316Z,33.09
2022-07-31T12:13:27.583Z,33.46
2022-07-31T12:14:27.654Z,33.07
2022-07-31T12:15:27.824Z,34.05
2022-07-31T12:16:28.009Z,33.36
2022-07-31T12:17:28.166Z,32.68
2022-07-31T12:18:28.336Z,32.56
2022-07-31T12:19:28.505Z,32.56
2022-07-31T12:20:35.318Z,32.56
2022-07-31T12:21:29.866Z,32.66
2022-07-31T12:22:29.016Z,32.56
2022-07-31T12:23:40.933Z,33.64
2022-07-31T12:24:30.355Z,32.37
2022-07-31T12:25:29.537Z,33.45
2022-07-31T12:26:29.745Z,32.46
2022-07-31T12:27:29.888Z,33.23
2022-07-31T12:28:30.067Z,32.86
2022-07-31T12:29:30.248Z,32.84
2022-07-31T12:30:30.428Z,32.45
2022-07-31T12:31:30.640Z,32.45
2022-07-31T12:32:30.769Z,32.35
2022-07-31T12:33:30.959Z,31.96
2022-07-31T12:34:31.146Z,32.16
2022-07-31T12:35:38.459Z,31.77
2022-07-31T12:36:32.508Z,31.48
2022-07-31T12:37:31.659Z,31.87
2022-07-31T12:38:44.694Z,31.77
2022-07-31T12:39:47.509Z,31.56
2022-07-31T12:40:33.210Z,31.08
2022-07-31T12:41:32.411Z,31.28
2022-07-31T12:42:36.424Z,31.57
2022-07-31T12:43:33.752Z,31.75
2022-07-31T12:44:32.901Z,31.16
2022-07-31T12:45:33.090Z,31.07
2022-07-31T12:46:33.280Z,30.79
2022-07-31T12:47:33.431Z,31.38
2022-07-31T12:48:38.602Z,31.10
2022-07-31T12:49:34.826Z,31.29
2022-07-31T12:50:33.983Z,31.60
2022-07-31T12:51:46.052Z,31.60
2022-07-31T12:52:35.342Z,31.90
2022-07-31T12:53:34.534Z,31.91
2022-07-31T12:54:39.155Z,32.30